Time;durP1;ratioP1;P1;durP2;ratioP2;P2;SDS_P1;SDS_P2;PMS_P1;PMS_P2;Temp;Humidity;BMP_temperature;BMP_pressure;BME280_temperature;BME280_humidity;BME280_pressure;Samples;Min_cycle;Max_cycle;Signal;HPM_P1;HPM_P2
2022/01/12 00:00:06;;;;;;;1999.90;999.90;;;3.00;99.90;;;;;;5071978;28;20060;-62
2022/01/12 00:02:36;;;;;;;1999.90;999.90;;;3.00;99.90;;;;;;5072947;28;20074;-62
2022/01/12 00:05:02;;;;;;;1999.90;999.90;;;3.00;99.90;;;;;;5072004;28;20055;-62
2022/01/12 00:07:28;;;;;;;1999.90;999.90;;;3.00;99.90;;;;;;5071726;28;20048;-62
2022/01/12 00:09:54;;;;;;;1999.90;999.90;;;3.00;99.90;;;;;;5072324;28;20052;-62
2022/01/12 00:12:19;;;;;;;1999.90;999.90;;;3.00;99.90;;;;;;5072674;28;20045;-62
2022/01/12 00:14:45;;;;;;;1999.90;999.90;;;3.00;99.90;;;;;;5071073;28;20068;-62
2022/01/12 00:17:11;;;;;;;1999.90;999.90;;;3.00;99.90;;;;;;5073063;28;20037;-62
2022/01/12 00:19:36;;;;;;;1999.90;999.90;;;3.00;99.90;;;;;;5072617;28;20087;-62
2022/01/12 00:22:02;;;;;;;1999.90;999.90;;;3.00;99.90;;;;;;5071398;28;20486;-62
2022/01/12 00:24:40;;;;;;;1999.90;999.90;;;3.00;99.90;;;;;;5072509;28;20048;-62
2022/01/12 00:35:25;;;;;;;1999.90;999.90;;;3.00;99.90;;;;;;5093963;28;20048;-62
2022/01/12 00:37:51;;;;;;;1999.90;999.90;;;3.00;99.90;;;;;;5078474;28;20446;-62
2022/01/12 00:40:17;;;;;;;1999.90;999.90;;;3.00;99.90;;;;;;5084071;28;20123;-62
2022/01/12 00:42:43;;;;;;;1999.90;999.90;;;3.00;99.90;;;;;;5075637;28;20044;-62
2022/01/12 00:45:11;;;;;;;1999.90;999.90;;;3.00;99.90;;;;;;5075774;28;20044;-62
2022/01/12 00:47:37;;;;;;;1999.90;999.90;;;3.00;99.90;;;;;;5075988;28;20509;-62
2022/01/12 00:50:03;;;;;;;1999.90;999.90;;;3.10;99.90;;;;;;5073874;28;20040;-62
2022/01/12 00:52:30;;;;;;;1999.90;999.90;;;3.00;99.90;;;;;;5096145;28;20048;-62
2022/01/12 00:54:55;;;;;;;1999.90;999.90;;;3.00;99.90;;;;;;5096585;28;20060;-62
2022/01/12 00:57:21;;;;;;;1999.90;999.90;;;3.10;99.90;;;;;;5095276;28;20512;-62
2022/01/12 00:59:47;;;;;;;1999.90;999.90;;;3.10;99.90;;;;;;5089877;28;20440;-62
2022/01/12 01:02:13;;;;;;;1999.90;999.90;;;3.10;99.90;;;;;;5068140;28;20048;-62
2022/01/12 01:04:39;;;;;;;1999.90;999.90;;;3.10;99.90;;;;;;5067385;28;20500;-62
2022/01/12 01:07:05;;;;;;;1999.90;999.90;;;3.10;99.90;;;;;;5082177;28;20173;-62
2022/01/12 01:09:33;;;;;;;1999.90;999.90;;;3.10;99.90;;;;;;5079810;28;20056;-62
2022/01/12 01:11:59;;;;;;;1999.90;999.90;;;3.10;99.90;;;;;;5057318;28;20135;-62
2022/01/12 01:14:44;;;;;;;1999.90;999.90;;;3.10;99.90;;;;;;5056969;28;20052;-62
2022/01/12 01:25:28;;;;;;;1999.90;999.90;;;3.10;99.90;;;;;;5076218;28;20062;-62
2022/01/12 01:25:37;;;;;;;1999.90;999.90;;;3.10;99.90;;;;;;5056467;28;20052;-62
2022/01/12 01:28:04;;;;;;;1999.90;999.90;;;3.10;99.90;;;;;;5057157;28;20036;-62
2022/01/12 01:30:35;;;;;;;1999.90;999.90;;;3.20;99.90;;;;;;5074537;28;20053;-62
2022/01/12 01:33:06;;;;;;;1999.90;999.90;;;3.20;99.90;;;;;;5079646;28;20085;-62
2022/01/12 01:35:34;;;;;;;1999.90;999.90;;;3.20;99.90;;;;;;5095428;28;20047;-62
2022/01/12 01:38:02;;;;;;;1999.90;999.90;;;3.30;99.90;;;;;;5076870;28;20047;-62
2022/01/12 01:40:31;;;;;;;1999.90;999.90;;;3.20;99.90;;;;;;5060373;28;20102;-62
2022/01/12 01:43:15;;;;;;;1999.90;999.90;;;3.20;99.90;;;;;;5067204;28;20075;-62
2022/01/12 01:53:56;;;;;;;1999.90;999.90;;;3.20;99.90;;;;;;5075730;28;20454;-62
2022/01/12 01:56:24;;;;;;;1999.90;999.90;;;3.20;99.90;;;;;;5077388;28;20040;-62
2022/01/12 01:58:51;;;;;;;1999.90;999.90;;;3.20;99.90;;;;;;5075881;28;20040;-62
2022/01/12 02:01:18;;;;;;;1999.90;999.90;;;3.20;99.90;;;;;;5077316;28;20033;-62
2022/01/12 02:03:54;;;;;;;1999.90;999.90;;;3.20;99.90;;;;;;5075712;28;20044;-62
2022/01/12 02:06:20;;;;;;;1999.90;999.90;;;3.20;99.90;;;;;;5055808;28;20445;-62
2022/01/12 02:08:46;;;;;;;1999.90;999.90;;;3.20;99.90;;;;;;5065508;28;20052;-62
2022/01/12 02:11:26;;;;;;;1999.90;999.90;;;3.20;99.90;;;;;;5093870;28;20075;-62
2022/01/12 02:13:55;;;;;;;1999.90;999.90;;;3.30;99.90;;;;;;5075420;28;20051;-62
2022/01/12 02:16:27;;;;;;;1999.90;999.90;;;3.30;99.90;;;;;;5076823;28;20040;-62
2022/01/12 02:19:11;;;;;;;;;;;3.30;99.90;;;;;;5094633;28;20138;-62
2022/01/12 02:40:33;;;;;;;1999.90;999.90;;;3.40;99.90;;;;;;5081174;28;20052;-62
2022/01/12 02:51:08;;;;;;;1999.90;999.90;;;3.40;99.90;;;;;;5066695;28;20133;-62
2022/01/12 02:53:39;;;;;;;1999.90;999.90;;;3.40;99.90;;;;;;5055055;28;20133;-62
2022/01/12 02:56:09;;;;;;;1999.90;999.90;;;3.40;99.90;;;;;;5054565;28;20123;-62
2022/01/12 02:58:36;;;;;;;1999.90;999.90;;;3.40;99.90;;;;;;5069651;28;20456;-62
2022/01/12 03:01:25;;;;;;;1999.90;999.90;;;3.40;99.90;;;;;;5057205;28;20037;-62
2022/01/12 03:03:51;;;;;;;1999.90;999.90;;;3.30;99.90;;;;;;5053902;28;20127;-62
2022/01/12 03:06:22;;;;;;;1999.90;999.90;;;3.30;99.90;;;;;;5054859;28;20039;-62
2022/01/12 03:08:49;;;;;;;1999.90;999.90;;;3.30;99.90;;;;;;5055098;28;20044;-62
2022/01/12 03:11:17;;;;;;;1999.90;999.90;;;3.30;99.90;;;;;;5073647;28;20437;-62
2022/01/12 03:13:47;;;;;;;1999.90;999.90;;;3.30;99.90;;;;;;5035467;28;20061;-62
2022/01/12 03:16:17;;;;;;;1999.90;999.90;;;3.20;99.90;;;;;;5063757;28;20040;-62
2022/01/12 03:18:47;;;;;;;1999.90;999.90;;;3.30;99.90;;;;;;5062696;28;20396;-62
2022/01/12 03:21:14;;;;;;;1999.90;999.90;;;3.20;99.90;;;;;;5077858;28;20036;-62
2022/01/12 03:23:40;;;;;;;1999.90;999.90;;;3.20;99.90;;;;;;5068392;28;20047;-62
2022/01/12 03:26:08;;;;;;;1999.90;999.90;;;3.20;99.90;;;;;;5093538;28;20043;-62
2022/01/12 03:28:34;;;;;;;1999.90;999.90;;;3.20;99.90;;;;;;5063777;28;20086;-62
2022/01/12 03:31:10;;;;;;;1999.90;999.90;;;3.20;99.90;;;;;;5054800;28;20095;-62
2022/01/12 03:33:51;;;;;;;1999.90;999.90;;;3.20;99.90;;;;;;5073011;28;20064;-62
2022/01/12 03:39:06;;;;;;;1999.90;999.90;;;3.10;99.90;;;;;;5072399;28;20053;-62
2022/01/12 03:41:35;;;;;;;1999.90;999.90;;;3.00;99.90;;;;;;5055024;28;20040;-62
2022/01/12 03:44:03;;;;;;;1999.90;999.90;;;3.00;99.90;;;;;;5054834;28;20052;-62
2022/01/12 03:46:32;;;;;;;1999.90;999.90;;;3.10;99.90;;;;;;5071711;28;20458;-62
2022/01/12 03:48:58;;;;;;;1999.90;999.90;;;3.00;99.90;;;;;;5054641;28;20059;-62
2022/01/12 03:51:25;;;;;;;1999.90;999.90;;;3.00;99.90;;;;;;5054426;28;20113;-62
2022/01/12 03:53:51;;;;;;;1999.90;999.90;;;3.00;99.90;;;;;;5071632;28;20127;-62
2022/01/12 03:56:17;;;;;;;1999.90;999.90;;;3.00;99.90;;;;;;5071242;28;20123;-62
2022/01/12 03:58:43;;;;;;;1999.90;999.90;;;2.90;99.90;;;;;;5072252;28;20036;-62
2022/01/12 04:01:09;;;;;;;1999.90;999.90;;;2.90;99.90;;;;;;5071419;28;20077;-62
2022/01/12 04:03:39;;;;;;;1999.90;999.90;;;2.90;99.90;;;;;;5072332;28;20044;-62
2022/01/12 04:08:51;;;;;;;1999.90;999.90;;;2.80;99.90;;;;;;5054220;28;20059;-62
2022/01/12 04:11:18;;;;;;;1999.90;999.90;;;2.80;99.90;;;;;;5055188;28;20458;-62
2022/01/12 04:13:46;;;;;;;1999.90;999.90;;;2.80;99.90;;;;;;5061394;28;20151;-62
2022/01/12 04:16:13;;;;;;;1999.90;999.90;;;2.70;99.90;;;;;;5060917;28;20040;-62
2022/01/12 04:18:39;;;;;;;1999.90;999.90;;;2.70;99.90;;;;;;5071594;28;20044;-62
2022/01/12 04:21:07;;;;;;;1999.90;999.90;;;2.70;99.90;;;;;;5085921;28;20367;-62
2022/01/12 04:23:35;;;;;;;1999.90;999.90;;;2.70;99.90;;;;;;5072684;28;20040;-62
2022/01/12 04:26:09;;;;;;;1999.90;999.90;;;2.70;99.90;;;;;;5072024;28;20490;-62
2022/01/12 04:28:39;;;;;;;1999.90;999.90;;;2.70;99.90;;;;;;5071736;28;20037;-62
2022/01/12 04:31:06;;;;;;;1999.90;999.90;;;2.70;99.90;;;;;;5072367;28;20045;-62
2022/01/12 04:33:34;;;;;;;1999.90;999.90;;;2.70;99.90;;;;;;5054242;28;20471;-62
2022/01/12 04:36:00;;;;;;;1999.90;999.90;;;2.70;99.90;;;;;;5059337;28;20068;-62
2022/01/12 04:38:33;;;;;;;1999.90;999.90;;;2.70;99.90;;;;;;5062095;28;20386;-62
2022/01/12 04:41:02;;;;;;;1999.90;999.90;;;2.60;99.90;;;;;;5061559;28;20102;-62
2022/01/12 04:43:29;;;;;;;1999.90;999.90;;;2.60;99.90;;;;;;5069017;28;20095;-62
2022/01/12 04:50:53;;;;;;;1999.90;999.90;;;2.50;99.90;;;;;;5072271;28;20455;-62
2022/01/12 04:53:20;;;;;;;1999.90;999.90;;;2.40;99.90;;;;;;5054156;28;20402;-62
2022/01/12 04:55:47;;;;;;;1999.90;999.90;;;2.40;99.90;;;;;;5053438;28;20063;-62
2022/01/12 04:58:14;;;;;;;1999.90;999.90;;;2.30;99.90;;;;;;5072154;28;20394;-61
2022/01/12 05:00:42;;;;;;;1999.90;999.90;;;2.30;99.90;;;;;;5054551;28;20105;-62
2022/01/12 05:08:52;;;;;;;1999.90;999.90;;;2.10;99.90;;;;;;5074326;28;20048;-62
2022/01/12 05:14:05;;;;;;;1999.90;999.90;;;2.00;99.90;;;;;;5056674;28;20051;-62
2022/01/12 05:16:31;;;;;;;1999.90;999.90;;;2.00;99.90;;;;;;5091705;28;20119;-62
2022/01/12 05:19:00;;;;;;;1999.90;999.90;;;2.00;99.90;;;;;;5090934;28;20490;-62
2022/01/12 05:21:26;;;;;;;1999.90;999.90;;;2.00;99.90;;;;;;5075981;28;20080;-61
2022/01/12 05:23:53;;;;;;;1999.90;999.90;;;2.00;99.90;;;;;;5093210;28;20050;-62
2022/01/12 05:26:19;;;;;;;1999.90;999.90;;;2.00;99.90;;;;;;5094469;28;20043;-62
2022/01/12 05:28:47;;;;;;;1999.90;999.90;;;2.10;99.90;;;;;;5094498;28;20079;-62
2022/01/12 05:31:13;;;;;;;1999.90;999.90;;;2.00;99.90;;;;;;5076554;28;20079;-62
2022/01/12 05:33:46;;;;;;;1999.90;999.90;;;2.00;99.90;;;;;;5029195;28;20052;-61
2022/01/12 05:36:15;;;;;;;1999.90;999.90;;;2.00;99.90;;;;;;5037501;28;20052;-62
2022/01/12 05:38:41;;;;;;;1999.90;999.90;;;1.90;99.90;;;;;;5036776;28;20036;-62
2022/01/12 05:41:07;;;;;;;1999.90;999.90;;;2.00;99.90;;;;;;5056558;28;20048;-62
2022/01/12 05:43:35;;;;;;;1999.90;999.90;;;2.00;99.90;;;;;;5074182;28;20043;-62
2022/01/12 05:46:11;;;;;;;1999.90;999.90;;;2.10;99.90;;;;;;5074434;28;20474;-62
2022/01/12 05:51:24;;;;;;;1999.90;999.90;;;2.00;99.90;;;;;;5036431;28;20056;-61
2022/01/12 05:53:50;;;;;;;1999.90;999.90;;;1.90;99.90;;;;;;5037343;28;20045;-61
2022/01/12 05:56:16;;;;;;;1999.90;999.90;;;1.90;99.90;;;;;;5053753;28;20049;-62
2022/01/12 05:58:43;;;;;;;1999.90;999.90;;;1.80;99.90;;;;;;5044351;28;20053;-62
2022/01/12 06:01:09;;;;;;;1999.90;999.90;;;1.80;99.90;;;;;;5074991;28;20047;-62
2022/01/12 06:03:35;;;;;;;1999.90;999.90;;;1.70;99.90;;;;;;5056643;28;20040;-61
2022/01/12 06:06:03;;;;;;;1999.90;999.90;;;1.70;99.90;;;;;;5056169;28;20076;-62
2022/01/12 06:08:30;;;;;;;1999.90;999.90;;;1.70;99.90;;;;;;5066306;28;20483;-62
2022/01/12 06:10:57;;;;;;;1999.90;999.90;;;1.60;99.90;;;;;;5074483;28;20049;-62
2022/01/12 06:13:23;;;;;;;1999.90;999.90;;;1.50;99.90;;;;;;5055955;28;20044;-62
2022/01/12 06:15:48;;;;;;;1999.90;999.90;;;1.40;99.90;;;;;;5073102;28;20036;-62
2022/01/12 06:18:14;;;;;;;1999.90;999.90;;;1.30;99.90;;;;;;5073235;28;20394;-62
2022/01/12 06:20:40;;;;;;;1999.90;999.90;;;1.30;99.90;;;;;;5072633;28;20081;-62
2022/01/12 06:23:11;;;;;;;1999.90;999.90;;;1.30;99.90;;;;;;5074437;28;20048;-62
2022/01/12 06:25:40;;;;;;;1999.90;999.90;;;1.20;99.90;;;;;;5055989;28;20036;-62
2022/01/12 06:28:34;;;;;;;1999.90;999.90;;;1.20;99.90;;;;;;5072244;28;20053;-62
2022/01/12 06:31:10;;;;;;;1999.90;999.90;;;1.20;99.90;;;;;;5056594;28;20477;-62
2022/01/12 06:33:40;;;;;;;1999.90;999.90;;;1.10;99.90;;;;;;5071628;28;20513;-62
2022/01/12 06:36:08;;;;;;;1999.90;999.90;;;1.10;99.90;;;;;;5074371;28;20049;-62
2022/01/12 06:38:35;;;;;;;1999.90;999.90;;;1.20;99.90;;;;;;5056416;28;20036;-62
2022/01/12 06:41:03;;;;;;;1999.90;999.90;;;1.20;99.90;;;;;;5052431;28;20498;-62
2022/01/12 06:43:29;;;;;;;1999.90;999.90;;;1.20;99.90;;;;;;5065057;28;20102;-62
2022/01/12 06:45:56;;;;;;;1999.90;999.90;;;1.30;99.90;;;;;;5056255;28;20050;-63
2022/01/12 06:48:22;;;;;;;1999.90;999.90;;;1.30;99.90;;;;;;5072927;28;20433;-62
2022/01/12 06:50:48;;;;;;;1999.90;999.90;;;1.20;99.90;;;;;;5056205;28;20059;-62
2022/01/12 06:53:13;;;;;;;1999.90;999.90;;;1.20;99.90;;;;;;5073495;28;20044;-62
2022/01/12 06:55:39;;;;;;;1999.90;999.90;;;1.10;99.90;;;;;;5054888;28;20115;-62
2022/01/12 06:58:06;;;;;;;1999.90;999.90;;;1.10;99.90;;;;;;5056027;28;20045;-62
2022/01/12 07:00:32;;;;;;;1999.90;999.90;;;1.10;99.90;;;;;;5073652;28;20036;-62
2022/01/12 07:02:58;;;;;;;1999.90;999.90;;;1.00;99.90;;;;;;5071187;28;20055;-62
2022/01/12 07:05:32;;;;;;;1999.90;999.90;;;1.00;99.90;;;;;;5055576;28;20041;-62
2022/01/12 07:07:58;;;;;;;1999.90;999.90;;;1.00;99.90;;;;;;5055939;28;20394;-62
2022/01/12 07:10:32;;;;;;;1999.90;999.90;;;1.00;99.90;;;;;;5063491;28;20053;-62
2022/01/12 07:13:05;;;;;;;1999.90;999.90;;;0.90;99.90;;;;;;5055310;28;20494;-62
2022/01/12 07:15:31;;;;;;;1999.90;999.90;;;0.90;99.90;;;;;;5072878;28;20051;-62
2022/01/12 07:18:03;;;;;;;1999.90;999.90;;;0.90;99.90;;;;;;5071822;28;20037;-62
2022/01/12 07:20:29;;;;;;;1999.90;999.90;;;0.80;99.90;;;;;;5055720;28;20058;-62
2022/01/12 07:22:54;;;;;;;1999.90;999.90;;;0.80;99.90;;;;;;5072371;28;20547;-62
2022/01/12 07:25:20;;;;;;;1999.90;999.90;;;0.80;99.90;;;;;;5072770;28;20509;-62
2022/01/12 07:27:46;;;;;;;1999.90;999.90;;;0.80;99.90;;;;;;5073002;28;20048;-62
2022/01/12 07:30:12;;;;;;;1999.90;999.90;;;0.80;99.90;;;;;;5074022;28;20071;-62
2022/01/12 07:32:37;;;;;;;1999.90;999.90;;;0.80;99.90;;;;;;5075983;28;20044;-62
2022/01/12 07:35:05;;;;;;;1999.90;999.90;;;0.80;99.90;;;;;;5088041;28;20051;-62
2022/01/12 07:37:31;;;;;;;1999.90;999.90;;;0.80;99.90;;;;;;5052205;28;20186;-62
2022/01/12 07:39:57;;;;;;;1999.90;999.90;;;0.80;99.90;;;;;;5062148;28;20127;-62
2022/01/12 07:42:23;;;;;;;1999.90;999.90;;;0.80;99.90;;;;;;5073211;28;20036;-62
2022/01/12 07:44:50;;;;;;;1999.90;999.90;;;0.80;99.90;;;;;;5053810;28;20044;-62
2022/01/12 07:47:15;;;;;;;1999.90;999.90;;;0.90;99.90;;;;;;5071493;28;20060;-62
2022/01/12 07:49:41;;;;;;;1999.90;999.90;;;0.80;99.90;;;;;;5072909;28;20056;-62
2022/01/12 07:52:07;;;;;;;1999.90;999.90;;;0.80;99.90;;;;;;5071977;28;20498;-62
2022/01/12 07:54:33;;;;;;;1999.90;999.90;;;0.70;99.90;;;;;;5072519;28;20075;-62
2022/01/12 07:56:58;;;;;;;1999.90;999.90;;;0.70;99.90;;;;;;5072998;28;20051;-62
2022/01/12 07:59:25;;;;;;;1999.90;999.90;;;0.60;99.90;;;;;;5072248;28;20040;-62
2022/01/12 08:01:50;;;;;;;1999.90;999.90;;;0.60;99.90;;;;;;5072152;28;20045;-62
2022/01/12 08:04:16;;;;;;;1999.90;999.90;;;0.60;99.90;;;;;;5072943;28;20482;-62
2022/01/12 08:06:42;;;;;;;1999.90;999.90;;;0.50;99.90;;;;;;5071880;28;20442;-62
2022/01/12 08:09:08;;;;;;;1999.90;999.90;;;0.50;99.90;;;;;;5071714;28;20083;-62
2022/01/12 08:11:34;;;;;;;1999.90;999.90;;;0.50;99.90;;;;;;5080390;28;20048;-62
2022/01/12 08:14:00;;;;;;;1999.90;999.90;;;0.50;99.90;;;;;;5080690;28;20048;-62
2022/01/12 08:16:25;;;;;;;1999.90;999.90;;;0.50;99.90;;;;;;5092740;28;20493;-62
2022/01/12 08:18:51;;;;;;;1999.90;999.90;;;0.50;99.90;;;;;;5073272;28;20540;-62
2022/01/12 08:21:17;;;;;;;1999.90;999.90;;;0.50;99.90;;;;;;5072126;28;20048;-62
2022/01/12 08:23:43;;;;;;;1999.90;999.90;;;0.50;99.90;;;;;;5071866;28;20518;-62
2022/01/12 08:26:08;;;;;;;1999.90;999.90;;;0.40;99.90;;;;;;5067814;28;20053;-62
2022/01/12 08:28:34;;;;;;;1999.90;999.90;;;0.40;99.90;;;;;;5055454;28;20044;-62
2022/01/12 08:31:00;;;;;;;1999.90;999.90;;;0.40;99.90;;;;;;5069905;28;20268;-62
2022/01/12 08:33:26;;;;;;;1999.90;999.90;;;0.40;99.90;;;;;;5080995;28;20474;-62
2022/01/12 08:35:53;;;;;;;1999.90;999.90;;;0.50;99.90;;;;;;5078448;28;20099;-62
2022/01/12 08:38:19;;;;;;;1999.90;999.90;;;0.50;99.90;;;;;;5075453;28;20037;-62
2022/01/12 08:40:44;;;;;;;1999.90;999.90;;;0.50;99.90;;;;;;5075788;28;20059;-62
2022/01/12 08:43:10;;;;;;;1999.90;999.90;;;0.60;99.90;;;;;;5072649;28;20116;-62
2022/01/12 08:45:36;;;;;;;1999.90;999.90;;;0.60;99.90;;;;;;5057447;28;20053;-62
2022/01/12 08:48:02;;;;;;;1999.90;999.90;;;0.60;99.90;;;;;;5069154;28;20040;-62
2022/01/12 08:50:28;;;;;;;1999.90;999.90;;;0.60;99.90;;;;;;5072246;28;20044;-62
2022/01/12 08:52:54;;;;;;;1999.90;999.90;;;0.50;99.90;;;;;;5071902;28;20079;-62
2022/01/12 08:55:21;;;;;;;1999.90;999.90;;;0.50;99.90;;;;;;5070350;28;20071;-62
2022/01/12 08:57:47;;;;;;;1999.90;999.90;;;0.60;99.90;;;;;;5081507;28;20040;-62
2022/01/12 09:00:14;;;;;;;1999.90;999.90;;;0.60;99.90;;;;;;5075494;28;20380;-62
2022/01/12 09:02:40;;;;;;;1999.90;999.90;;;0.60;99.90;;;;;;5067173;28;20052;-62
2022/01/12 09:05:07;;;;;;;1999.90;999.90;;;0.70;99.90;;;;;;5074334;28;20056;-62
2022/01/12 09:07:33;;;;;;;1999.90;999.90;;;0.70;99.90;;;;;;5075592;28;20119;-62
2022/01/12 09:09:59;;;;;;;1999.90;999.90;;;0.70;99.90;;;;;;5074864;28;20048;-62
2022/01/12 09:12:26;;;;;;;1999.90;999.90;;;0.70;99.90;;;;;;5074059;28;20441;-62
2022/01/12 09:14:53;;;;;;;1999.90;999.90;;;0.80;99.90;;;;;;5048502;28;20137;-62
2022/01/12 09:17:21;;;;;;;1999.90;999.90;;;0.80;99.90;;;;;;5054932;28;20106;-62
2022/01/12 09:19:47;;;;;;;1999.90;999.90;;;0.90;99.90;;;;;;5055356;28;20049;-62
2022/01/12 09:22:14;;;;;;;1999.90;999.90;;;0.90;99.90;;;;;;5062214;28;20036;-62
2022/01/12 09:24:42;;;;;;;1999.90;999.90;;;0.90;99.90;;;;;;5075272;28;20467;-62
2022/01/12 09:27:08;;;;;;;1999.90;999.90;;;1.00;99.90;;;;;;5081311;28;20101;-62
2022/01/12 09:29:34;;;;;;;1999.90;999.90;;;1.00;99.90;;;;;;5077687;28;20044;-62
2022/01/12 09:32:00;;;;;;;1999.90;999.90;;;1.10;99.90;;;;;;5074981;28;20442;-62
2022/01/12 09:34:26;;;;;;;1999.90;999.90;;;1.10;99.90;;;;;;5067171;28;20044;-62
2022/01/12 09:36:52;;;;;;;1999.90;999.90;;;1.20;99.90;;;;;;5067460;28;20094;-62
2022/01/12 09:39:18;;;;;;;1999.90;999.90;;;1.20;99.90;;;;;;5061829;28;20036;-62
2022/01/12 09:41:44;;;;;;;1999.90;999.90;;;1.20;99.90;;;;;;5074623;28;20041;-62
2022/01/12 09:44:11;;;;;;;1999.90;999.90;;;1.20;99.90;;;;;;5074025;28;20146;-62
2022/01/12 09:46:37;;;;;;;1999.90;999.90;;;1.30;99.90;;;;;;5075007;28;20383;-62
2022/01/12 09:49:06;;;;;;;1999.90;999.90;;;1.40;99.90;;;;;;5073818;28;20048;-62
2022/01/12 09:51:32;;;;;;;1999.90;999.90;;;1.50;99.90;;;;;;5056760;28;20513;-62
2022/01/12 09:53:58;;;;;;;1999.90;999.90;;;1.50;99.90;;;;;;5036870;28;20060;-62
2022/01/12 09:56:27;;;;;;;1999.90;999.90;;;1.60;99.90;;;;;;5054838;28;20063;-62
2022/01/12 09:58:58;;;;;;;;;;;1.70;99.90;;;;;;5054923;28;20040;-62
2022/01/12 10:01:35;;;;;;;1999.90;999.90;;;1.70;99.90;;;;;;5074939;28;19920;-62
2022/01/12 10:04:20;;;;;;;1999.90;999.90;;;1.70;99.90;;;;;;5074700;28;20045;-63
2022/01/12 10:06:53;;;;;;;1999.90;999.90;;;1.70;99.90;;;;;;5077455;28;20440;-62
2022/01/12 10:09:25;;;;;;;1999.90;999.90;;;1.80;99.90;;;;;;5075493;28;20056;-62
2022/01/12 10:11:53;;;;;;;1999.90;999.90;;;1.80;99.90;;;;;;5073735;28;20036;-63
2022/01/12 10:14:21;;;;;;;1999.90;999.90;;;1.90;99.90;;;;;;5055801;28;20088;-62
2022/01/12 10:16:54;;;;;;;1999.90;999.90;;;1.90;99.90;;;;;;5076393;28;20044;-62
2022/01/12 10:19:26;;;;;;;1999.90;999.90;;;2.00;99.90;;;;;;5052509;28;20084;-62
2022/01/12 10:21:52;;;;;;;1999.90;999.90;;;2.10;99.90;;;;;;5053846;28;20518;-62
2022/01/12 10:24:19;;;;;;;1999.90;999.90;;;2.20;99.90;;;;;;5063019;28;20099;-62
2022/01/12 10:26:47;;;;;;;1999.90;999.90;;;2.20;99.90;;;;;;5056006;28;20517;-62
2022/01/12 10:29:18;;;;;;;1999.90;999.90;;;2.20;99.90;;;;;;5035786;28;20511;-62
2022/01/12 10:31:45;;;;;;;1999.90;999.90;;;2.30;99.90;;;;;;5067028;28;20146;-62
2022/01/12 10:34:11;;;;;;;1999.90;999.90;;;2.30;99.90;;;;;;5072278;28;20105;-62
2022/01/12 10:36:38;;;;;;;1999.90;999.90;;;2.40;99.90;;;;;;5073625;28;20123;-62
2022/01/12 10:39:06;;;;;;;1999.90;999.90;;;2.40;99.90;;;;;;5074062;28;20051;-62
2022/01/12 10:41:32;;;;;;;1999.90;999.90;;;2.50;99.90;;;;;;5075344;28;20041;-62
2022/01/12 10:43:58;;;;;;;1999.90;999.90;;;2.60;99.90;;;;;;5048323;28;20064;-62
2022/01/12 10:46:26;;;;;;;1999.90;999.90;;;2.60;99.90;;;;;;5051103;28;20136;-62
2022/01/12 10:48:55;;;;;;;1999.90;999.90;;;2.70;99.90;;;;;;5064645;28;20052;-62
2022/01/12 10:51:25;;;;;;;1999.90;999.90;;;2.70;99.90;;;;;;5082233;28;20040;-63
2022/01/12 10:53:53;;;;;;;1999.90;999.90;;;2.80;99.90;;;;;;5066357;28;20131;-62
2022/01/12 10:56:22;;;;;;;1999.90;999.90;;;2.80;99.90;;;;;;5073916;28;20037;-62
2022/01/12 10:58:49;;;;;;;1999.90;999.90;;;2.90;99.90;;;;;;5072701;28;20045;-62
2022/01/12 11:01:18;;;;;;;1999.90;999.90;;;2.90;99.90;;;;;;5079583;28;20407;-63
2022/01/12 11:03:45;;;;;;;1999.90;999.90;;;3.00;99.90;;;;;;5083143;28;20048;-62
2022/01/12 11:06:11;;;;;;;1999.90;999.90;;;3.10;99.90;;;;;;5081561;28;20059;-63
2022/01/12 11:08:38;;;;;;;1999.90;999.90;;;3.10;99.90;;;;;;5064651;28;20557;-63
2022/01/12 11:11:06;;;;;;;1999.90;999.90;;;3.20;99.90;;;;;;5079591;28;20048;-63
2022/01/12 11:13:32;;;;;;;1999.90;999.90;;;3.30;99.90;;;;;;5082085;28;20071;-63
2022/01/12 11:15:59;;;;;;;1999.90;999.90;;;3.30;99.90;;;;;;5081298;28;20080;-63
2022/01/12 11:18:28;;;;;;;1999.90;999.90;;;3.30;99.90;;;;;;5078482;28;20123;-63
2022/01/12 11:21:00;;;;;;;1999.90;999.90;;;3.50;99.90;;;;;;5075903;28;20057;-62
2022/01/12 11:23:36;;;;;;;1999.90;999.90;;;3.50;99.90;;;;;;5072394;28;20044;-62
2022/01/12 11:26:13;;;;;;;1999.90;999.90;;;3.50;99.90;;;;;;5072412;28;20048;-63
2022/01/12 11:28:39;;;;;;;1999.90;999.90;;;3.60;99.90;;;;;;5061542;28;20490;-63
2022/01/12 11:31:06;;;;;;;1999.90;999.90;;;3.60;99.90;;;;;;5082490;28;20127;-63
2022/01/12 11:33:31;;;;;;;1999.90;999.90;;;3.60;99.90;;;;;;5081690;28;20040;-63
2022/01/12 11:36:03;;;;;;;1999.90;999.90;;;3.60;99.90;;;;;;5074330;28;20060;-63
2022/01/12 11:38:34;;;;;;;1999.90;999.90;;;3.70;99.90;;;;;;5073296;28;20095;-63
2022/01/12 11:41:14;;;;;;;1999.90;999.90;;;3.70;99.90;;;;;;5073333;28;20459;-63
2022/01/12 11:43:44;;;;;;;1999.90;999.90;;;3.80;99.90;;;;;;5071826;28;20106;-63
2022/01/12 11:46:14;;;;;;;1999.90;999.90;;;3.90;99.90;;;;;;5073111;28;20418;-63
2022/01/12 11:48:45;;;;;;;1999.90;999.90;;;3.90;99.90;;;;;;5072760;28;20420;-63
2022/01/12 11:51:12;;;;;;;1999.90;999.90;;;4.00;99.90;;;;;;5071863;28;20047;-63
2022/01/12 11:53:54;;;;;;;1999.90;999.90;;;4.00;99.90;;;;;;5075391;28;20359;-63
2022/01/12 11:56:24;;;;;;;1999.90;999.90;;;4.10;99.90;;;;;;5083711;28;20044;-63
2022/01/12 11:58:54;;;;;;;1999.90;999.90;;;4.10;99.90;;;;;;5077247;28;20489;-63
2022/01/12 12:01:22;;;;;;;1999.90;999.90;;;4.10;99.90;;;;;;5072467;28;20064;-63
2022/01/12 12:03:59;;;;;;;1999.90;999.90;;;4.10;99.90;;;;;;5072010;28;20076;-63
2022/01/12 12:06:25;;;;;;;1999.90;999.90;;;4.10;99.90;;;;;;5072525;28;20127;-63
2022/01/12 12:09:01;;;;;;;1999.90;999.90;;;4.20;99.90;;;;;;5072733;28;20056;-63
2022/01/12 12:11:29;;;;;;;1999.90;999.90;;;4.20;99.90;;;;;;5067794;28;20441;-63
2022/01/12 12:14:00;;;;;;;1999.90;999.90;;;4.20;99.90;;;;;;5072346;28;20110;-63
2022/01/12 12:16:27;;;;;;;1999.90;999.90;;;4.30;99.90;;;;;;5064837;28;20139;-63
2022/01/12 12:18:54;;;;;;;1999.90;999.90;;;4.30;99.90;;;;;;5071615;28;20036;-63
2022/01/12 12:21:20;;;;;;;1999.90;999.90;;;4.30;99.90;;;;;;5072643;28;20051;-63
2022/01/12 12:23:47;;;;;;;1999.90;999.90;;;4.40;99.90;;;;;;5072638;28;20053;-63
2022/01/12 12:26:18;;;;;;;1999.90;999.90;;;4.40;99.90;;;;;;5072036;28;20056;-63
2022/01/12 12:28:53;;;;;;;1999.90;999.90;;;4.40;99.90;;;;;;5071878;28;20045;-63
2022/01/12 12:31:26;;;;;;;1999.90;999.90;;;4.50;99.90;;;;;;5076193;28;20052;-63
2022/01/12 12:34:00;;;;;;;;;;;4.50;99.90;;;;;;5076070;28;20127;-63
2022/01/12 12:36:26;;;;;;;1999.90;999.90;;;4.60;99.90;;;;;;5076222;28;19924;-63
2022/01/12 12:38:51;;;;;;;1999.90;999.90;;;4.60;99.90;;;;;;5076385;28;20445;-63
2022/01/12 12:41:17;;;;;;;1999.90;999.90;;;4.60;99.90;;;;;;5076033;28;20127;-62
2022/01/12 12:43:45;;;;;;;1999.90;999.90;;;4.70;99.90;;;;;;5076491;28;20050;-63
2022/01/12 12:46:13;;;;;;;1999.90;999.90;;;4.70;99.90;;;;;;5077171;28;20052;-63
2022/01/12 12:48:40;;;;;;;1999.90;999.90;;;4.70;99.90;;;;;;5065489;28;20383;-63
2022/01/12 12:51:09;;;;;;;1999.90;999.90;;;4.70;99.90;;;;;;5076594;28;20131;-63
2022/01/12 12:53:37;;;;;;;1999.90;999.90;;;4.80;99.90;;;;;;5059999;28;20049;-63
2022/01/12 12:56:06;;;;;;;1999.90;999.90;;;4.80;99.90;;;;;;5073913;28;20474;-63
2022/01/12 12:58:32;;;;;;;1999.90;999.90;;;4.80;99.90;;;;;;5076087;28;20055;-63
2022/01/12 13:01:06;;;;;;;1999.90;999.90;;;4.80;99.90;;;;;;5075247;28;20044;-63
2022/01/12 13:03:31;;;;;;;1999.90;999.90;;;4.80;99.90;;;;;;5077980;28;20044;-63
2022/01/12 13:05:57;;;;;;;1999.90;999.90;;;4.70;99.90;;;;;;5081962;28;20036;-63
2022/01/12 13:08:23;;;;;;;1999.90;999.90;;;4.80;99.90;;;;;;5074941;28;20471;-63
2022/01/12 13:10:49;;;;;;;1999.90;999.90;;;4.70;99.90;;;;;;5065308;28;20110;-63
2022/01/12 13:13:15;;;;;;;1999.90;999.90;;;4.70;99.90;;;;;;5071524;28;20044;-63
2022/01/12 13:15:43;;;;;;;1999.90;999.90;;;4.70;99.90;;;;;;5075482;28;20128;-63
2022/01/12 13:18:20;;;;;;;1999.90;999.90;;;4.70;99.90;;;;;;5077773;28;20051;-63
2022/01/12 13:21:07;;;;;;;1999.90;999.90;;;4.70;99.90;;;;;;5077938;28;20044;-63
2022/01/12 13:23:40;;;;;;;1999.90;999.90;;;4.60;99.90;;;;;;5081237;28;20071;-63